createdAt,value
2017-10-13T00:01:31.688Z,81.20
2017-10-13T00:03:59.248Z,81.50
2017-10-13T00:06:26.860Z,81.60
2017-10-13T00:08:55.266Z,81.80
2017-10-13T00:11:22.847Z,81.70
2017-10-13T00:13:50.436Z,82.90
2017-10-13T00:16:18.063Z,82.10
2017-10-13T00:18:45.647Z,82.30
2017-10-13T00:21:13.286Z,82.10
2017-10-13T00:23:40.874Z,82.50
2017-10-13T00:26:08.464Z,82.40
2017-10-13T00:28:36.860Z,82.60
2017-10-13T00:31:05.239Z,82.20
2017-10-13T00:33:33.629Z,82.60
2017-10-13T00:36:01.259Z,82.60
2017-10-13T00:38:28.831Z,82.50
2017-10-13T00:40:57.190Z,82.50
2017-10-13T00:43:24.802Z,82.50
2017-10-13T00:45:53.156Z,82.80
2017-10-13T00:48:20.795Z,82.70
2017-10-13T00:50:48.386Z,83.00
2017-10-13T00:53:16.029Z,83.20
2017-10-13T00:55:43.639Z,82.30
2017-10-13T00:58:11.240Z,82.80
2017-10-13T01:00:38.852Z,83.00
2017-10-13T01:03:06.443Z,82.80
2017-10-13T01:05:34.063Z,82.60
2017-10-13T01:08:01.689Z,82.50
2017-10-13T01:10:29.303Z,82.50
2017-10-13T01:12:56.911Z,82.90
2017-10-13T01:15:24.526Z,82.80
2017-10-13T01:17:52.110Z,82.40
2017-10-13T01:20:19.764Z,82.40
2017-10-13T01:22:47.383Z,82.20
2017-10-13T01:25:15.790Z,82.90
2017-10-13T01:27:43.412Z,82.90
2017-10-13T01:30:11.008Z,83.70
2017-10-13T01:32:38.607Z,83.50
2017-10-13T01:35:06.240Z,83.20
2017-10-13T01:37:33.876Z,83.20
2017-10-13T01:40:02.220Z,83.20
2017-10-13T01:42:29.837Z,83.20
2017-10-13T01:44:57.495Z,83.20
2017-10-13T01:47:25.139Z,82.80
2017-10-13T01:49:53.505Z,82.60
2017-10-13T01:52:21.125Z,82.60
2017-10-13T01:54:48.742Z,82.20
2017-10-13T01:57:17.136Z,83.30
2017-10-13T01:59:45.535Z,83.70
2017-10-13T02:02:13.139Z,83.40
2017-10-13T02:04:40.731Z,83.40
2017-10-13T02:07:09.135Z,83.20
2017-10-13T02:09:36.772Z,83.20
2017-10-13T02:12:05.136Z,82.50
2017-10-13T02:14:32.781Z,82.50
2017-10-13T02:17:00.422Z,82.20
2017-10-13T02:19:28.139Z,83.00
2017-10-13T02:21:56.481Z,82.50
2017-10-13T02:24:24.104Z,82.40
2017-10-13T02:26:51.731Z,82.60
2017-10-13T02:29:19.328Z,82.60
2017-10-13T02:31:47.689Z,82.70
2017-10-13T02:34:16.084Z,82.60
2017-10-13T02:36:43.684Z,82.60
2017-10-13T02:39:11.286Z,82.90
2017-10-13T02:41:39.675Z,82.60
2017-10-13T02:44:07.274Z,82.60
2017-10-13T02:46:34.866Z,82.90
2017-10-13T02:49:02.499Z,83.20
2017-10-13T02:51:30.080Z,83.30
2017-10-13T02:53:57.734Z,83.30
2017-10-13T02:56:25.391Z,83.40
2017-10-13T02:58:52.981Z,83.50
2017-10-13T03:01:23.667Z,83.40
2017-10-13T03:03:54.189Z,83.40
2017-10-13T03:06:21.801Z,83.00
2017-10-13T03:08:49.435Z,83.40
2017-10-13T03:11:17.056Z,83.00
2017-10-13T03:13:45.467Z,83.80
2017-10-13T03:16:13.042Z,83.80
2017-10-13T03:18:40.632Z,83.40
2017-10-13T03:21:09.035Z,83.00
2017-10-13T03:23:37.375Z,83.60
2017-10-13T03:26:04.987Z,83.60
2017-10-13T03:28:32.604Z,83.60
2017-10-13T03:31:00.235Z,83.10
2017-10-13T03:33:27.903Z,82.90
2017-10-13T03:35:55.507Z,82.80
2017-10-13T03:38:23.913Z,82.50
2017-10-13T03:40:51.518Z,82.50
2017-10-13T03:43:19.147Z,82.80
2017-10-13T03:45:46.766Z,83.30
2017-10-13T03:48:14.367Z,83.90
2017-10-13T03:50:41.991Z,83.50
2017-10-13T03:53:09.571Z,83.40
2017-10-13T03:55:37.965Z,83.80
2017-10-13T03:58:06.420Z,83.70
2017-10-13T04:00:34.078Z,83.70
2017-10-13T04:03:01.680Z,84.60
2017-10-13T04:05:29.288Z,83.30
2017-10-13T04:07:56.942Z,83.50
2017-10-13T04:10:24.567Z,84.00
2017-10-13T04:12:52.212Z,83.70
2017-10-13T04:15:20.558Z,83.70
2017-10-13T04:17:48.157Z,83.70
2017-10-13T04:20:16.561Z,84.40
2017-10-13T04:22:44.186Z,84.40
2017-10-13T04:25:12.580Z,84.00
2017-10-13T04:27:40.926Z,84.10
2017-10-13T04:30:08.584Z,84.10
2017-10-13T04:32:36.143Z,84.10
2017-10-13T04:35:03.803Z,84.10
2017-10-13T04:37:31.446Z,83.70
2017-10-13T04:39:59.029Z,83.70
2017-10-13T04:42:27.499Z,83.20
2017-10-13T04:44:55.079Z,83.20
2017-10-13T04:47:22.662Z,83.00
2017-10-13T04:49:51.060Z,83.50
2017-10-13T04:52:18.673Z,83.50
2017-10-13T04:54:46.311Z,83.40
2017-10-13T04:57:13.907Z,83.50
2017-10-13T04:59:41.533Z,83.60
2017-10-13T05:02:09.121Z,83.30
2017-10-13T05:04:36.717Z,83.20
2017-10-13T05:07:04.363Z,83.40
2017-10-13T05:09:32.019Z,83.40
2017-10-13T05:11:59.630Z,83.20
2017-10-13T05:14:27.227Z,83.10
2017-10-13T05:16:54.914Z,82.70
2017-10-13T05:19:22.583Z,82.50
2017-10-13T05:21:50.196Z,83.00
2017-10-13T05:24:17.852Z,83.00
2017-10-13T05:26:45.443Z,83.20
2017-10-13T05:29:13.086Z,83.00
2017-10-13T05:31:40.776Z,82.50
2017-10-13T05:34:08.411Z,82.50
2017-10-13T05:36:36.043Z,82.00
2017-10-13T05:39:03.676Z,81.60
2017-10-13T05:41:32.034Z,82.20
2017-10-13T05:43:59.678Z,82.20
2017-10-13T05:46:27.356Z,82.60
2017-10-13T05:48:54.985Z,82.50
2017-10-13T05:51:22.715Z,82.50
2017-10-13T05:53:50.354Z,82.50
2017-10-13T05:56:17.996Z,82.40
2017-10-13T05:58:45.575Z,82.50
2017-10-13T06:01:13.236Z,82.50
2017-10-13T06:03:40.819Z,82.70
2017-10-13T06:06:09.198Z,82.40
2017-10-13T06:08:37.622Z,82.70
2017-10-13T06:11:05.211Z,82.50
2017-10-13T06:13:32.856Z,82.10
2017-10-13T06:16:00.443Z,82.60
2017-10-13T06:18:28.836Z,82.80
2017-10-13T06:20:56.483Z,82.10
2017-10-13T06:23:24.080Z,83.00
2017-10-13T06:25:51.695Z,82.90
2017-10-13T06:28:19.473Z,83.00
2017-10-13T06:30:47.058Z,82.80
2017-10-13T06:33:15.485Z,82.20
2017-10-13T06:35:44.200Z,82.60
2017-10-13T06:38:11.815Z,82.60
2017-10-13T06:40:39.507Z,82.00
2017-10-13T06:43:07.168Z,82.40
2017-10-13T06:45:34.831Z,81.70
2017-10-13T06:48:02.708Z,82.40
2017-10-13T06:50:30.427Z,81.80
2017-10-13T06:52:58.150Z,81.60
2017-10-13T06:55:25.781Z,81.80
2017-10-13T06:57:53.381Z,81.70
2017-10-13T07:00:21.764Z,80.90
2017-10-13T07:02:49.416Z,80.80
2017-10-13T07:05:17.067Z,80.80
2017-10-13T07:07:44.755Z,80.80
2017-10-13T07:10:12.381Z,81.60
2017-10-13T07:12:40.021Z,81.40
2017-10-13T07:15:07.643Z,81.40
2017-10-13T07:17:35.269Z,81.00
2017-10-13T07:20:02.941Z,81.30
2017-10-13T07:22:30.529Z,81.60
2017-10-13T07:24:59.199Z,81.60
2017-10-13T07:27:27.011Z,81.50
2017-10-13T07:29:54.649Z,81.50
2017-10-13T07:32:22.279Z,80.50
2017-10-13T07:34:49.971Z,79.80
2017-10-13T07:37:18.119Z,79.80
2017-10-13T07:39:46.157Z,80.20
2017-10-13T07:42:14.156Z,79.80
2017-10-13T07:44:41.880Z,80.20
2017-10-13T07:47:09.568Z,80.30
2017-10-13T07:49:38.016Z,79.40
2017-10-13T07:52:05.716Z,79.40
2017-10-13T07:54:37.206Z,79.20
2017-10-13T07:57:05.655Z,79.00
2017-10-13T07:59:33.650Z,78.40
2017-10-13T08:02:01.428Z,78.50
2017-10-13T08:04:30.022Z,77.60
2017-10-13T08:06:58.502Z,77.50
2017-10-13T08:09:27.966Z,77.20
2017-10-13T08:11:56.028Z,77.10
2017-10-13T08:14:24.469Z,76.60
2017-10-13T08:16:52.479Z,75.50
2017-10-13T08:19:20.226Z,75.60
2017-10-13T08:21:48.334Z,75.40
2017-10-13T08:24:16.128Z,74.70
2017-10-13T08:26:44.522Z,74.60
2017-10-13T08:29:12.462Z,74.60
2017-10-13T08:31:40.274Z,74.80
2017-10-13T08:34:08.037Z,74.00
2017-10-13T08:36:35.964Z,73.20
2017-10-13T08:39:03.670Z,73.30
2017-10-13T08:41:31.289Z,72.40
2017-10-13T08:43:58.950Z,69.50
2017-10-13T08:46:27.348Z,66.10
2017-10-13T08:48:54.956Z,64.70
2017-10-13T08:51:22.642Z,63.60
2017-10-13T08:53:50.394Z,61.80
2017-10-13T08:56:18.009Z,60.50
2017-10-13T08:58:46.668Z,58.70
2017-10-13T09:01:14.733Z,58.70
2017-10-13T09:03:42.378Z,56.80
2017-10-13T09:06:10.147Z,55.50
2017-10-13T09:08:37.889Z,52.00
2017-10-13T09:11:05.531Z,48.20
2017-10-13T09:13:33.510Z,46.70
2017-10-13T09:16:01.380Z,47.70
2017-10-13T09:18:29.026Z,48.50
2017-10-13T09:20:56.705Z,46.30
2017-10-13T09:23:25.887Z,47.80
2017-10-13T09:25:54.224Z,52.90
2017-10-13T09:28:22.079Z,55.70
2017-10-13T09:30:49.734Z,57.90
2017-10-13T09:33:21.117Z,58.40
2017-10-13T09:35:49.162Z,59.80
2017-10-13T09:38:16.780Z,59.10
2017-10-13T09:40:45.195Z,61.00
2017-10-13T09:43:12.835Z,61.00
2017-10-13T09:45:40.476Z,61.60
2017-10-13T09:48:09.004Z,63.30
2017-10-13T09:50:36.665Z,63.30
2017-10-13T09:53:04.338Z,62.50
2017-10-13T09:55:32.064Z,63.80
2017-10-13T09:58:00.580Z,62.10
2017-10-13T10:00:28.225Z,62.10
2017-10-13T10:02:55.829Z,62.60
2017-10-13T10:05:23.492Z,62.90
2017-10-13T10:07:51.241Z,62.90
2017-10-13T10:10:18.875Z,64.10
2017-10-13T10:12:46.570Z,63.80
2017-10-13T10:15:14.188Z,63.50
2017-10-13T10:17:42.462Z,61.80
2017-10-13T10:20:11.351Z,63.20
2017-10-13T10:22:39.784Z,62.80
2017-10-13T10:25:07.483Z,62.70
2017-10-13T10:27:35.832Z,63.60
2017-10-13T10:30:04.256Z,63.60
2017-10-13T10:32:32.689Z,65.00
2017-10-13T10:35:00.446Z,64.30
2017-10-13T10:37:28.177Z,63.10
2017-10-13T10:39:55.759Z,62.00
2017-10-13T10:42:23.419Z,59.20
2017-10-13T10:44:51.095Z,57.00
2017-10-13T10:47:18.775Z,56.70
2017-10-13T10:49:46.431Z,57.80
2017-10-13T10:52:14.084Z,57.60
2017-10-13T10:54:41.667Z,58.20
2017-10-13T10:57:09.270Z,57.80
2017-10-13T10:59:37.698Z,57.30
2017-10-13T11:02:05.280Z,57.20
2017-10-13T11:04:33.012Z,57.60
2017-10-13T11:07:00.681Z,56.00
2017-10-13T11:09:28.430Z,56.90
2017-10-13T11:11:56.068Z,55.90
2017-10-13T11:14:23.727Z,56.40
2017-10-13T11:16:51.369Z,55.90
2017-10-13T11:19:19.524Z,55.40
2017-10-13T11:21:47.967Z,53.20
2017-10-13T11:24:15.603Z,53.20
2017-10-13T11:26:43.972Z,51.00
2017-10-13T11:29:12.387Z,50.30
2017-10-13T11:31:39.969Z,50.20
2017-10-13T11:34:07.613Z,47.10
2017-10-13T11:36:35.253Z,46.80
2017-10-13T11:39:03.615Z,44.70
2017-10-13T11:41:31.295Z,44.60
2017-10-13T11:43:59.693Z,44.10
2017-10-13T11:46:27.316Z,44.10
2017-10-13T11:48:55.832Z,44.00
2017-10-13T11:51:23.440Z,42.20
2017-10-13T11:53:51.158Z,41.80
2017-10-13T11:56:18.812Z,40.50
2017-10-13T11:58:47.200Z,40.30
2017-10-13T12:01:14.886Z,40.20
2017-10-13T12:03:42.606Z,38.60
2017-10-13T12:06:11.029Z,39.20
2017-10-13T12:08:38.783Z,39.10
2017-10-13T12:11:06.681Z,39.40
2017-10-13T12:13:40.260Z,37.40
2017-10-13T12:16:07.938Z,37.20
2017-10-13T12:18:35.594Z,34.40
2017-10-13T12:21:03.214Z,34.60
2017-10-13T12:23:31.587Z,33.50
2017-10-13T12:25:59.272Z,33.40
2017-10-13T12:28:26.938Z,34.60
2017-10-13T12:30:55.538Z,34.50
2017-10-13T12:33:23.205Z,34.80
2017-10-13T12:35:50.803Z,39.50
2017-10-13T12:38:18.513Z,42.90
2017-10-13T12:40:49.901Z,45.20
2017-10-13T12:43:17.564Z,45.30
2017-10-13T12:45:45.217Z,44.60
2017-10-13T12:48:12.838Z,46.70
2017-10-13T12:50:40.462Z,47.90
2017-10-13T12:53:08.081Z,47.40
2017-10-13T12:55:35.697Z,48.80
2017-10-13T12:58:03.375Z,48.70
2017-10-13T13:00:31.879Z,49.00
2017-10-13T13:02:59.448Z,49.00
2017-10-13T13:05:27.176Z,48.20
2017-10-13T13:07:54.858Z,48.00
2017-10-13T13:10:22.554Z,48.30
2017-10-13T13:12:50.331Z,47.60
2017-10-13T13:15:18.009Z,47.40
2017-10-13T13:17:45.766Z,47.70
2017-10-13T13:20:13.550Z,48.30
2017-10-13T13:22:41.353Z,51.30
2017-10-13T13:25:09.154Z,50.90
2017-10-13T13:27:36.920Z,50.20
2017-10-13T13:30:05.642Z,52.50
2017-10-13T13:32:33.688Z,53.20
2017-10-13T13:35:01.441Z,52.30
2017-10-13T13:37:29.067Z,52.80
2017-10-13T13:39:56.852Z,52.90
2017-10-13T13:42:24.537Z,53.90
2017-10-13T13:44:52.172Z,53.70
2017-10-13T13:47:19.816Z,53.80
2017-10-13T13:49:47.545Z,54.20
2017-10-13T13:52:15.247Z,54.30
2017-10-13T13:54:43.828Z,54.30
2017-10-13T13:57:12.314Z,54.40
2017-10-13T13:59:39.958Z,54.40
2017-10-13T14:02:07.583Z,54.90
2017-10-13T14:04:35.438Z,52.80
2017-10-13T14:07:03.117Z,52.80
2017-10-13T14:09:30.954Z,51.80
2017-10-13T14:11:58.573Z,51.30
2017-10-13T14:14:27.098Z,49.20
2017-10-13T14:16:54.931Z,49.20
2017-10-13T14:19:22.698Z,50.00
2017-10-13T14:21:51.168Z,47.00
2017-10-13T14:24:18.875Z,46.90
2017-10-13T14:26:46.625Z,46.40
2017-10-13T14:29:15.169Z,48.00
2017-10-13T14:31:42.990Z,48.00
2017-10-13T14:34:10.727Z,51.10
2017-10-13T14:36:38.515Z,50.30
2017-10-13T14:39:07.007Z,52.10
2017-10-13T14:41:35.502Z,51.60
2017-10-13T14:44:03.239Z,51.60
2017-10-13T14:46:31.122Z,51.60
2017-10-13T14:48:58.849Z,49.50
2017-10-13T14:51:26.438Z,49.30
2017-10-13T14:53:54.214Z,49.30
2017-10-13T14:56:22.675Z,51.20
2017-10-13T14:58:50.359Z,50.70
2017-10-13T15:01:17.973Z,51.90
2017-10-13T15:03:45.603Z,52.80
2017-10-13T15:06:13.310Z,53.00
2017-10-13T15:08:40.943Z,52.70
2017-10-13T15:11:08.584Z,53.90
2017-10-13T15:13:36.268Z,54.50
2017-10-13T15:16:04.176Z,56.00
2017-10-13T15:18:32.589Z,55.40
2017-10-13T15:21:01.885Z,55.40
2017-10-13T15:23:29.471Z,55.00
2017-10-13T15:25:57.157Z,55.50
2017-10-13T15:28:30.570Z,55.60
2017-10-13T15:31:01.803Z,56.10
2017-10-13T15:33:35.891Z,56.60
2017-10-13T15:36:09.365Z,56.60
2017-10-13T15:38:42.584Z,56.90
2017-10-13T15:41:16.031Z,57.30
2017-10-13T15:43:49.496Z,58.10
2017-10-13T15:46:22.705Z,58.60
2017-10-13T15:48:55.871Z,59.20
2017-10-13T15:51:29.033Z,60.50
2017-10-13T15:53:56.700Z,60.80
2017-10-13T15:56:24.316Z,61.20
2017-10-13T15:58:51.973Z,61.30
2017-10-13T16:01:19.643Z,60.90
2017-10-13T16:03:48.071Z,61.60
2017-10-13T16:06:15.758Z,61.50
2017-10-13T16:08:45.180Z,62.80
2017-10-13T16:11:14.969Z,63.10
2017-10-13T16:13:45.571Z,62.40
2017-10-13T16:16:15.137Z,62.80
2017-10-13T16:18:45.627Z,62.80
2017-10-13T16:21:14.920Z,62.90
2017-10-13T16:23:45.474Z,63.50
2017-10-13T16:26:16.322Z,63.70
2017-10-13T16:28:46.155Z,64.10
2017-10-13T16:31:16.375Z,64.30
2017-10-13T16:33:47.149Z,65.00
2017-10-13T16:36:16.918Z,64.80
2017-10-13T16:38:46.648Z,65.60
2017-10-13T16:41:16.568Z,65.40
2017-10-13T16:43:46.914Z,66.80
2017-10-13T16:46:17.354Z,66.80
2017-10-13T16:48:46.731Z,66.70
2017-10-13T16:51:17.320Z,67.80
2017-10-13T16:53:48.028Z,67.80
2017-10-13T16:56:17.880Z,68.20
2017-10-13T16:58:47.731Z,69.00
2017-10-13T17:01:15.978Z,69.50
2017-10-13T17:03:44.670Z,70.60
2017-10-13T17:06:12.678Z,70.40
2017-10-13T17:08:40.548Z,71.10
2017-10-13T17:11:08.195Z,71.20
2017-10-13T17:13:35.798Z,71.70
2017-10-13T17:16:03.397Z,71.90
2017-10-13T17:18:31.079Z,72.40
2017-10-13T17:20:59.436Z,73.00
2017-10-13T17:23:27.078Z,73.60
2017-10-13T17:25:54.658Z,72.90
2017-10-13T17:28:23.073Z,73.20
2017-10-13T17:30:50.768Z,73.30
2017-10-13T17:33:18.340Z,73.60
2017-10-13T17:35:45.962Z,72.50
2017-10-13T17:38:13.559Z,73.20
2017-10-13T17:40:41.204Z,73.60
2017-10-13T17:43:08.802Z,72.90
2017-10-13T17:45:36.426Z,74.00
2017-10-13T17:48:04.018Z,74.60
2017-10-13T17:50:31.624Z,75.20
2017-10-13T17:53:00.012Z,75.30
2017-10-13T17:55:27.606Z,75.30
2017-10-13T17:57:55.226Z,74.90
2017-10-13T18:00:22.854Z,74.40
2017-10-13T18:02:50.450Z,73.90
2017-10-13T18:05:18.032Z,74.50
2017-10-13T18:07:45.745Z,74.10
2017-10-13T18:10:13.401Z,74.70
2017-10-13T18:12:41.015Z,75.20
2017-10-13T18:15:08.605Z,75.70
2017-10-13T18:17:36.227Z,75.80
2017-10-13T18:20:03.825Z,76.20
2017-10-13T18:22:31.466Z,76.30
2017-10-13T18:24:59.062Z,76.80
2017-10-13T18:27:26.642Z,77.00
2017-10-13T18:29:54.371Z,76.60
2017-10-13T18:32:21.979Z,76.20
2017-10-13T18:34:50.326Z,77.40
2017-10-13T18:37:17.954Z,77.30
2017-10-13T18:39:45.547Z,77.50
2017-10-13T18:42:13.125Z,77.70
2017-10-13T18:44:41.526Z,77.00
2017-10-13T18:47:09.914Z,76.40
2017-10-13T18:49:37.498Z,76.40
2017-10-13T18:52:05.095Z,76.10
2017-10-13T18:54:32.738Z,76.10
2017-10-13T18:57:00.335Z,76.40
2017-10-13T18:59:28.746Z,77.80
2017-10-13T19:01:56.319Z,77.80
2017-10-13T19:04:23.898Z,78.00
2017-10-13T19:06:51.527Z,77.70
2017-10-13T19:09:19.132Z,78.40
2017-10-13T19:11:46.708Z,78.40
2017-10-13T19:14:14.358Z,77.80
2017-10-13T19:16:41.994Z,77.50
2017-10-13T19:19:09.644Z,77.60
2017-10-13T19:21:37.226Z,78.10
2017-10-13T19:24:04.801Z,78.30
2017-10-13T19:26:32.448Z,78.90
2017-10-13T19:29:00.065Z,79.50
2017-10-13T19:31:28.407Z,79.50
2017-10-13T19:33:56.041Z,79.40
2017-10-13T19:36:23.614Z,79.70
2017-10-13T19:38:51.243Z,79.30
2017-10-13T19:41:18.818Z,78.30
2017-10-13T19:43:46.396Z,78.10
2017-10-13T19:46:14.031Z,78.10
2017-10-13T19:48:41.626Z,77.70
2017-10-13T19:51:09.254Z,77.80
2017-10-13T19:53:36.834Z,78.10
2017-10-13T19:56:04.420Z,79.70
2017-10-13T19:58:32.047Z,80.60
2017-10-13T20:00:59.622Z,80.30
2017-10-13T20:03:29.718Z,80.30
2017-10-13T20:05:57.417Z,80.30
2017-10-13T20:08:25.000Z,80.60
2017-10-13T20:10:52.591Z,81.00
2017-10-13T20:13:21.027Z,80.20
2017-10-13T20:15:48.619Z,80.10
2017-10-13T20:18:16.200Z,79.60
2017-10-13T20:20:44.584Z,79.20
2017-10-13T20:23:12.175Z,79.20
2017-10-13T20:25:40.642Z,79.00
2017-10-13T20:28:08.337Z,78.80
2017-10-13T20:30:35.953Z,79.00
2017-10-13T20:33:03.586Z,78.90
2017-10-13T20:35:31.215Z,78.80
2017-10-13T20:37:58.801Z,78.70
2017-10-13T20:40:26.443Z,78.70
2017-10-13T20:42:54.064Z,78.70
2017-10-13T20:45:21.659Z,79.10
2017-10-13T20:47:49.247Z,79.00
2017-10-13T20:50:16.864Z,78.70
2017-10-13T20:52:44.507Z,79.50
2017-10-13T20:55:12.118Z,80.00
2017-10-13T20:57:39.746Z,80.30
2017-10-13T21:00:07.332Z,80.40
2017-10-13T21:02:35.012Z,79.80
2017-10-13T21:05:03.407Z,80.00
2017-10-13T21:07:30.970Z,80.00
2017-10-13T21:09:58.605Z,80.10
2017-10-13T21:12:26.227Z,80.20
2017-10-13T21:14:54.634Z,79.90
2017-10-13T21:17:22.280Z,79.90
2017-10-13T21:19:49.883Z,79.20
2017-10-13T21:22:17.527Z,78.80
2017-10-13T21:24:45.126Z,78.40
2017-10-13T21:27:12.749Z,78.40
2017-10-13T21:29:40.316Z,78.70
2017-10-13T21:32:07.914Z,78.40
2017-10-13T21:34:36.298Z,79.60
2017-10-13T21:37:04.724Z,79.70
2017-10-13T21:39:32.302Z,79.70
2017-10-13T21:41:59.917Z,79.30
2017-10-13T21:44:28.256Z,79.10
2017-10-13T21:46:55.899Z,79.10
2017-10-13T21:49:23.523Z,79.70
2017-10-13T21:51:51.179Z,79.70
2017-10-13T21:54:19.539Z,79.30
2017-10-13T21:56:47.142Z,79.90
2017-10-13T21:59:14.777Z,79.30
2017-10-13T22:01:43.128Z,80.20
2017-10-13T22:04:10.700Z,80.10
2017-10-13T22:06:38.359Z,80.70
2017-10-13T22:09:05.934Z,80.20
2017-10-13T22:11:34.348Z,79.60
2017-10-13T22:14:01.918Z,79.50
2017-10-13T22:16:30.314Z,78.70
2017-10-13T22:18:57.894Z,78.70
2017-10-13T22:21:25.473Z,79.90
2017-10-13T22:23:53.098Z,80.20
2017-10-13T22:26:20.678Z,79.80
2017-10-13T22:28:48.254Z,79.30
2017-10-13T22:31:15.878Z,79.20
2017-10-13T22:33:43.472Z,79.80
2017-10-13T22:36:11.089Z,79.40
2017-10-13T22:38:38.693Z,80.10
2017-10-13T22:41:06.323Z,79.50
2017-10-13T22:43:33.894Z,79.30
2017-10-13T22:46:01.520Z,79.10
2017-10-13T22:48:29.107Z,78.80
2017-10-13T22:50:57.439Z,78.50
2017-10-13T22:53:25.813Z,78.70
2017-10-13T22:55:53.381Z,78.70
2017-10-13T22:58:21.779Z,79.30
2017-10-13T23:00:49.347Z,79.20
2017-10-13T23:03:16.923Z,80.50
2017-10-13T23:05:44.542Z,81.00
2017-10-13T23:08:12.881Z,80.40
2017-10-13T23:10:40.461Z,80.40
2017-10-13T23:13:08.097Z,80.20
2017-10-13T23:15:35.670Z,80.30
2017-10-13T23:18:03.276Z,80.00
2017-10-13T23:20:30.920Z,79.60
2017-10-13T23:22:58.500Z,79.60
2017-10-13T23:25:26.083Z,79.40
2017-10-13T23:27:53.699Z,79.00
2017-10-13T23:30:21.337Z,78.80
2017-10-13T23:32:48.906Z,78.80
2017-10-13T23:35:16.471Z,78.50
2017-10-13T23:37:44.080Z,78.20
2017-10-13T23:40:11.642Z,78.40
2017-10-13T23:42:39.258Z,78.50
2017-10-13T23:45:06.828Z,79.20
2017-10-13T23:47:35.177Z,80.30
2017-10-13T23:50:02.790Z,80.30
2017-10-13T23:52:31.184Z,81.80
2017-10-13T23:54:58.769Z,81.70
2017-10-13T23:57:26.354Z,81.60
2017-10-13T23:59:53.962Z,80.80
